Time;durP1;ratioP1;P1;durP2;ratioP2;P2;SDS_P1;SDS_P2;PMS_P1;PMS_P2;Temp;Humidity;BMP_temperature;BMP_pressure;BME280_temperature;BME280_humidity;BME280_pressure;Samples;Min_cycle;Max_cycle;Signal;HPM_P1;HPM_P2
2021/05/24 00:00:24;;;;;;;1.50;1.10;;;23.70;33.70;;;;;;5092188;28;20204;-45
2021/05/24 00:02:50;;;;;;;1.27;1.10;;;23.70;33.80;;;;;;5087349;28;20668;-45
2021/05/24 00:05:16;;;;;;;1.67;1.35;;;23.70;33.80;;;;;;5091363;28;20230;-45
2021/05/24 00:07:42;;;;;;;1.67;1.20;;;23.70;33.80;;;;;;5090321;28;20196;-46
2021/05/24 00:10:08;;;;;;;1.42;1.30;;;23.70;34.60;;;;;;5091386;28;20716;-46
2021/05/24 00:12:34;;;;;;;1.65;1.25;;;23.70;33.90;;;;;;5090655;28;20299;-46
2021/05/24 00:15:00;;;;;;;1.40;1.30;;;23.70;34.00;;;;;;5089717;28;20196;-50
2021/05/24 00:17:26;;;;;;;1.40;1.30;;;23.70;34.00;;;;;;5085658;28;20196;-45
2021/05/24 00:19:52;;;;;;;1.63;1.10;;;23.70;33.90;;;;;;5091216;28;20204;-51
2021/05/24 00:22:18;;;;;;;1.25;1.08;;;23.70;34.10;;;;;;5091422;28;20502;-48
2021/05/24 00:24:44;;;;;;;1.50;1.00;;;23.70;34.00;;;;;;5090121;28;20192;-45
2021/05/24 00:27:12;;;;;;;1.65;1.00;;;23.70;34.10;;;;;;5091246;28;20572;-47
2021/05/24 00:29:38;;;;;;;1.33;1.10;;;23.70;34.20;;;;;;5089377;28;20241;-45
2021/05/24 00:32:04;;;;;;;1.10;1.00;;;23.70;34.10;;;;;;5091474;28;20323;-45
2021/05/24 00:34:30;;;;;;;1.20;1.10;;;23.70;34.20;;;;;;5090329;28;20670;-44
2021/05/24 00:36:56;;;;;;;1.60;1.20;;;23.70;34.10;;;;;;5090238;28;20212;-45
2021/05/24 00:39:22;;;;;;;1.48;1.10;;;23.70;34.20;;;;;;5087242;28;20298;-48
2021/05/24 00:41:48;;;;;;;1.52;1.10;;;23.70;34.20;;;;;;5091400;28;20306;-45
2021/05/24 00:44:14;;;;;;;1.10;1.00;;;23.70;34.20;;;;;;5089414;28;20200;-45
2021/05/24 00:46:40;;;;;;;1.42;1.20;;;23.70;34.20;;;;;;5077863;28;20638;-49
2021/05/24 00:49:06;;;;;;;1.10;1.00;;;23.70;34.20;;;;;;5090279;28;20220;-50
2021/05/24 00:51:32;;;;;;;1.20;1.10;;;23.70;34.20;;;;;;5091327;28;20274;-49
2021/05/24 00:53:58;;;;;;;1.40;1.30;;;23.70;34.30;;;;;;5088327;28;20619;-47
2021/05/24 00:56:24;;;;;;;1.60;1.13;;;23.70;34.20;;;;;;5087638;28;20201;-45
2021/05/24 00:58:50;;;;;;;1.30;1.20;;;23.70;34.20;;;;;;5096019;28;20203;-46
2021/05/24 01:01:16;;;;;;;1.00;0.90;;;23.70;34.30;;;;;;5098442;28;20276;-45
2021/05/24 01:03:42;;;;;;;1.13;1.10;;;23.70;34.20;;;;;;5088391;28;20208;-47
2021/05/24 01:06:08;;;;;;;1.55;1.35;;;23.70;34.20;;;;;;5088237;28;20201;-45
2021/05/24 01:08:34;;;;;;;1.10;1.10;;;23.70;34.20;;;;;;5090286;28;20224;-49
2021/05/24 01:11:00;;;;;;;2.22;1.35;;;23.70;34.20;;;;;;5074407;28;20216;-48
2021/05/24 01:13:26;;;;;;;2.10;1.00;;;23.70;34.20;;;;;;5087880;28;20207;-48
2021/05/24 01:15:52;;;;;;;1.40;1.30;;;23.70;34.20;;;;;;5091204;28;20546;-52
2021/05/24 01:18:18;;;;;;;1.10;1.00;;;23.70;34.20;;;;;;5089385;28;20204;-48
2021/05/24 01:20:44;;;;;;;1.27;1.13;;;23.70;34.20;;;;;;5090599;28;20212;-45
2021/05/24 01:23:11;;;;;;;1.60;1.13;;;23.70;34.20;;;;;;5084287;28;20625;-46
2021/05/24 01:25:37;;;;;;;0.98;0.95;;;23.60;34.20;;;;;;5090011;28;20208;-49
2021/05/24 01:28:04;;;;;;;1.08;1.00;;;23.70;34.20;;;;;;5089318;28;20282;-50
2021/05/24 01:30:30;;;;;;;1.30;1.20;;;23.70;34.20;;;;;;5089627;28;20232;-46
2021/05/24 01:32:56;;;;;;;1.35;1.25;;;23.70;34.30;;;;;;5089304;28;20205;-48
2021/05/24 01:35:22;;;;;;;1.20;1.10;;;23.70;34.30;;;;;;5090405;28;20488;-45
2021/05/24 01:37:48;;;;;;;1.48;1.00;;;23.70;34.30;;;;;;5078696;28;20204;-47
2021/05/24 01:40:14;;;;;;;1.27;1.00;;;23.70;34.30;;;;;;5090975;28;20224;-46
2021/05/24 01:42:40;;;;;;;1.20;1.10;;;23.70;34.30;;;;;;5089116;28;20201;-47
2021/05/24 01:45:06;;;;;;;1.27;1.13;;;23.70;34.40;;;;;;5077532;28;20259;-48
2021/05/24 01:47:32;;;;;;;1.10;1.05;;;23.70;34.40;;;;;;5089496;28;20661;-50
2021/05/24 01:49:58;;;;;;;0.90;0.90;;;23.70;34.40;;;;;;5089937;28;20323;-49
2021/05/24 01:52:24;;;;;;;1.10;1.10;;;23.70;34.30;;;;;;5090041;28;20200;-45
2021/05/24 01:54:50;;;;;;;1.58;1.10;;;23.70;34.40;;;;;;5088002;28;20204;-49
2021/05/24 01:57:16;;;;;;;1.23;1.20;;;23.70;34.40;;;;;;5089937;28;20204;-46
2021/05/24 01:59:42;;;;;;;0.90;0.90;;;23.70;34.40;;;;;;5089508;28;20681;-47
2021/05/24 02:02:08;;;;;;;0.90;0.90;;;23.70;34.30;;;;;;5090454;28;20200;-48
2021/05/24 02:04:35;;;;;;;1.27;1.17;;;23.60;34.20;;;;;;5088589;28;20200;-51
2021/05/24 02:07:01;;;;;;;1.00;1.00;;;23.70;34.40;;;;;;5089854;28;20209;-46
2021/05/24 02:09:27;;;;;;;0.90;0.90;;;23.70;34.50;;;;;;5088408;28;20232;-50
2021/05/24 02:11:53;;;;;;;1.15;1.00;;;23.70;34.40;;;;;;5090427;28;20270;-46
2021/05/24 02:14:19;;;;;;;1.27;1.17;;;23.70;34.40;;;;;;5087747;28;20223;-48
2021/05/24 02:16:45;;;;;;;1.88;1.10;;;23.70;34.40;;;;;;5092478;28;20207;-48
2021/05/24 02:19:11;;;;;;;0.90;0.90;;;23.70;34.40;;;;;;5090481;28;20929;-45
2021/05/24 02:21:37;;;;;;;1.08;1.00;;;23.70;34.40;;;;;;5091919;28;20216;-50
2021/05/24 02:24:03;;;;;;;1.55;1.10;;;23.70;34.40;;;;;;5093081;28;20192;-48
2021/05/24 02:26:29;;;;;;;1.00;1.00;;;23.70;34.40;;;;;;5094260;28;20201;-46
2021/05/24 02:28:55;;;;;;;1.00;1.00;;;23.70;34.50;;;;;;5093982;28;20220;-48
2021/05/24 02:31:21;;;;;;;0.95;0.95;;;23.70;34.50;;;;;;5093108;28;20227;-49
2021/05/24 02:33:47;;;;;;;1.23;1.00;;;23.70;34.50;;;;;;5091769;28;20536;-45
2021/05/24 02:36:13;;;;;;;1.17;1.00;;;23.70;34.50;;;;;;5092844;28;20228;-46
2021/05/24 02:38:39;;;;;;;0.82;0.80;;;23.70;34.50;;;;;;5092387;28;20200;-46
2021/05/24 02:41:05;;;;;;;1.15;1.05;;;23.60;34.40;;;;;;5094340;28;20239;-50
2021/05/24 02:43:31;;;;;;;1.02;1.00;;;23.70;34.60;;;;;;5092867;28;20565;-51
2021/05/24 02:45:57;;;;;;;1.00;0.90;;;23.70;34.50;;;;;;5093413;28;20215;-51
2021/05/24 02:48:23;;;;;;;1.10;1.00;;;23.70;34.50;;;;;;5092615;28;20193;-48
2021/05/24 02:50:49;;;;;;;1.00;1.00;;;23.70;34.50;;;;;;5093335;28;20224;-48
2021/05/24 02:53:15;;;;;;;1.20;1.10;;;23.70;35.20;;;;;;5090871;28;20200;-52
2021/05/24 02:55:41;;;;;;;1.23;1.02;;;23.70;34.50;;;;;;5073115;28;20209;-48
2021/05/24 02:58:07;;;;;;;1.35;1.00;;;23.60;34.50;;;;;;5075821;28;20278;-48
2021/05/24 03:00:33;;;;;;;1.63;1.10;;;23.70;34.90;;;;;;5076193;28;20697;-48
2021/05/24 03:02:59;;;;;;;1.52;1.13;;;23.70;34.50;;;;;;5091671;28;20210;-50
2021/05/24 03:05:25;;;;;;;1.25;0.98;;;23.70;34.60;;;;;;5093717;28;20196;-50
2021/05/24 03:07:51;;;;;;;1.73;1.10;;;23.70;34.60;;;;;;5092815;28;20629;-48
2021/05/24 03:10:17;;;;;;;1.02;0.90;;;23.60;34.50;;;;;;5092960;28;20239;-49
2021/05/24 03:12:43;;;;;;;0.90;0.90;;;23.70;34.50;;;;;;5093474;28;20223;-49
2021/05/24 03:15:09;;;;;;;1.00;0.90;;;23.70;34.60;;;;;;5090057;28;20192;-48
2021/05/24 03:17:35;;;;;;;0.98;0.98;;;23.70;34.50;;;;;;5092620;28;20257;-47
2021/05/24 03:20:01;;;;;;;0.90;0.90;;;23.60;34.50;;;;;;5092991;28;20252;-47
2021/05/24 03:22:27;;;;;;;0.90;0.90;;;23.70;34.50;;;;;;5093403;28;20204;-48
2021/05/24 03:24:53;;;;;;;1.00;1.00;;;23.60;34.40;;;;;;5087239;28;20197;-51
2021/05/24 03:27:19;;;;;;;1.05;1.05;;;23.60;34.50;;;;;;5078454;28;20201;-49
2021/05/24 03:29:45;;;;;;;1.20;1.00;;;23.60;34.40;;;;;;5093391;28;20228;-49
2021/05/24 03:32:11;;;;;;;1.10;0.90;;;23.60;34.50;;;;;;5087375;28;20258;-46
2021/05/24 03:34:37;;;;;;;1.00;0.90;;;23.60;34.40;;;;;;5081941;28;20201;-49
2021/05/24 03:37:03;;;;;;;2.05;1.00;;;23.60;34.50;;;;;;5090436;28;20219;-48
2021/05/24 03:39:29;;;;;;;1.60;1.00;;;23.60;34.40;;;;;;5091330;28;20204;-47
2021/05/24 03:41:55;;;;;;;1.02;1.02;;;23.60;34.50;;;;;;5086181;28;20212;-45
2021/05/24 03:44:21;;;;;;;1.08;0.98;;;23.70;34.60;;;;;;5079356;28;20197;-48
2021/05/24 03:46:47;;;;;;;1.25;1.15;;;23.60;34.50;;;;;;5092069;28;20204;-49
2021/05/24 03:49:13;;;;;;;1.23;1.10;;;23.70;34.60;;;;;;5080051;28;20704;-48
2021/05/24 03:51:39;;;;;;;1.15;0.90;;;23.60;34.50;;;;;;5091972;28;20256;-48
2021/05/24 03:54:05;;;;;;;0.90;0.90;;;23.60;34.40;;;;;;5089268;28;20192;-50
2021/05/24 03:56:31;;;;;;;1.40;1.30;;;23.60;34.50;;;;;;5092613;28;20592;-49
2021/05/24 03:58:57;;;;;;;1.20;1.10;;;23.60;35.20;;;;;;5080968;28;20201;-47
2021/05/24 04:01:23;;;;;;;1.00;1.00;;;23.60;34.50;;;;;;5072340;28;20229;-46
2021/05/24 04:03:51;;;;;;;1.30;1.10;;;23.60;34.50;;;;;;5082514;28;20491;-46
2021/05/24 04:06:18;;;;;;;1.05;0.98;;;23.60;34.50;;;;;;5091698;28;20208;-46
2021/05/24 04:08:46;;;;;;;0.80;0.80;;;23.60;34.40;;;;;;5081916;28;20243;-46
2021/05/24 04:11:12;;;;;;;1.15;0.90;;;23.60;34.40;;;;;;5092182;28;20544;-50
2021/05/24 04:13:38;;;;;;;0.90;0.90;;;23.60;34.40;;;;;;5089035;28;20665;-49
2021/05/24 04:16:04;;;;;;;0.98;0.98;;;23.60;34.40;;;;;;5092251;28;20236;-49
2021/05/24 04:18:34;;;;;;;1.00;0.90;;;23.60;34.40;;;;;;5091310;28;20269;-45
2021/05/24 04:21:01;;;;;;;0.95;0.95;;;23.60;35.10;;;;;;5092474;28;20260;-47
2021/05/24 04:23:27;;;;;;;0.90;0.90;;;23.60;34.40;;;;;;5090295;28;20205;-46
2021/05/24 04:25:53;;;;;;;0.98;0.98;;;23.60;34.40;;;;;;5092145;28;20208;-46
2021/05/24 04:28:19;;;;;;;0.80;0.80;;;23.60;34.40;;;;;;5091036;28;20193;-50
2021/05/24 04:30:46;;;;;;;1.00;1.00;;;23.60;34.40;;;;;;5092453;28;20220;-45
2021/05/24 04:33:12;;;;;;;0.77;0.77;;;23.60;34.50;;;;;;5089545;28;20200;-52
2021/05/24 04:35:38;;;;;;;1.17;1.08;;;23.60;34.40;;;;;;5082646;28;20633;-45
2021/05/24 04:38:04;;;;;;;1.55;0.90;;;23.60;34.40;;;;;;5087788;28;20212;-48
2021/05/24 04:40:30;;;;;;;0.90;0.90;;;23.60;34.40;;;;;;5077924;28;20216;-48
2021/05/24 04:42:56;;;;;;;1.13;1.05;;;23.60;34.40;;;;;;5090515;28;20227;-49
2021/05/24 04:45:22;;;;;;;1.20;1.10;;;23.70;34.50;;;;;;5091734;28;20548;-48
2021/05/24 04:47:48;;;;;;;0.88;0.88;;;23.70;34.50;;;;;;5091244;28;20204;-50
2021/05/24 04:50:14;;;;;;;1.63;0.98;;;23.60;34.50;;;;;;5085791;28;20232;-48
2021/05/24 04:52:40;;;;;;;0.88;0.88;;;23.70;34.50;;;;;;5084952;28;20679;-49
2021/05/24 04:55:06;;;;;;;1.25;1.00;;;23.60;34.40;;;;;;5071278;28;20204;-45
2021/05/24 04:57:32;;;;;;;1.00;1.00;;;23.60;34.40;;;;;;5089298;28;20216;-47
2021/05/24 04:59:58;;;;;;;1.55;1.10;;;23.60;34.60;;;;;;5089988;28;20232;-45
2021/05/24 05:02:24;;;;;;;1.98;0.98;;;23.70;35.20;;;;;;5079296;28;20197;-43
2021/05/24 05:04:50;;;;;;;1.27;1.10;;;23.70;35.10;;;;;;5081251;28;20196;-43
2021/05/24 05:07:16;;;;;;;1.27;1.17;;;23.70;34.80;;;;;;5091018;28;20204;-43
2021/05/24 05:09:42;;;;;;;1.05;0.95;;;23.70;34.80;;;;;;5083045;28;20278;-45
2021/05/24 05:12:08;;;;;;;2.00;0.93;;;23.60;34.60;;;;;;5086566;28;20200;-44
2021/05/24 05:14:34;;;;;;;1.02;1.02;;;23.70;34.70;;;;;;5078518;28;20207;-44
2021/05/24 05:17:00;;;;;;;1.02;0.90;;;23.70;34.70;;;;;;5091303;28;20196;-45
2021/05/24 05:19:26;;;;;;;1.10;1.00;;;23.60;34.60;;;;;;5087871;28;20303;-46
2021/05/24 05:21:52;;;;;;;0.93;0.93;;;23.70;34.70;;;;;;5082420;28;20267;-45
2021/05/24 05:24:18;;;;;;;1.67;1.00;;;23.70;34.70;;;;;;5090304;28;20207;-43
2021/05/24 05:26:44;;;;;;;1.35;1.20;;;23.70;34.70;;;;;;5090636;28;20684;-43
2021/05/24 05:29:10;;;;;;;1.00;0.90;;;23.70;34.70;;;;;;5089006;28;20239;-44
2021/05/24 05:31:36;;;;;;;1.00;0.90;;;23.60;34.60;;;;;;5085703;28;20201;-48
2021/05/24 05:34:02;;;;;;;1.85;1.00;;;23.60;34.60;;;;;;5088680;28;20618;-44
2021/05/24 05:36:29;;;;;;;1.08;1.00;;;23.70;34.70;;;;;;5089000;28;20200;-45
2021/05/24 05:38:55;;;;;;;0.90;0.90;;;23.70;34.70;;;;;;5086647;28;21989;-44
2021/05/24 05:41:21;;;;;;;1.02;1.00;;;23.70;34.70;;;;;;5083376;28;20270;-43
2021/05/24 05:43:47;;;;;;;1.33;1.10;;;23.60;34.50;;;;;;5087002;28;20745;-44
2021/05/24 05:46:13;;;;;;;0.90;0.90;;;23.70;34.70;;;;;;5090512;28;20212;-43
2021/05/24 05:48:39;;;;;;;1.27;0.90;;;23.70;34.60;;;;;;5090780;28;20348;-45
2021/05/24 05:51:05;;;;;;;1.80;0.90;;;23.70;34.60;;;;;;5083098;28;20291;-44
2021/05/24 05:53:32;;;;;;;1.90;0.95;;;23.60;34.50;;;;;;5089751;28;20204;-44
2021/05/24 05:55:58;;;;;;;1.00;0.90;;;23.70;34.60;;;;;;5089768;28;20536;-42
2021/05/24 05:58:24;;;;;;;0.82;0.82;;;23.70;34.60;;;;;;5089966;28;20317;-45
2021/05/24 06:00:50;;;;;;;0.75;0.75;;;23.70;34.60;;;;;;5086663;28;20297;-44
2021/05/24 06:03:16;;;;;;;0.90;0.90;;;23.70;34.60;;;;;;5088196;28;20201;-43
2021/05/24 06:05:42;;;;;;;1.33;1.20;;;23.70;34.50;;;;;;5088356;28;20245;-46
2021/05/24 06:08:08;;;;;;;0.80;0.80;;;23.70;34.60;;;;;;5090212;28;20553;-45
2021/05/24 06:10:34;;;;;;;1.10;1.00;;;23.70;34.50;;;;;;5089473;28;20232;-43
2021/05/24 06:13:00;;;;;;;1.08;1.02;;;23.70;34.60;;;;;;5089930;28;20204;-46
2021/05/24 06:15:26;;;;;;;0.90;0.90;;;23.70;34.60;;;;;;5088483;28;20577;-45
2021/05/24 06:17:52;;;;;;;0.95;0.93;;;23.70;34.60;;;;;;5088902;28;20208;-47
2021/05/24 06:20:18;;;;;;;1.15;1.00;;;23.70;34.60;;;;;;5086440;28;20222;-43
2021/05/24 06:22:44;;;;;;;0.93;0.90;;;23.70;34.50;;;;;;5089924;28;20204;-49
2021/05/24 06:25:10;;;;;;;0.90;0.90;;;23.60;34.40;;;;;;5088656;28;20249;-46
2021/05/24 06:27:36;;;;;;;0.93;0.93;;;23.70;34.50;;;;;;5090356;28;20569;-45
2021/05/24 06:30:02;;;;;;;0.80;0.80;;;23.70;34.50;;;;;;5087575;28;20232;-45
2021/05/24 06:32:28;;;;;;;0.93;0.93;;;23.70;34.50;;;;;;5090077;28;20208;-44
2021/05/24 06:34:54;;;;;;;0.90;0.90;;;23.70;34.50;;;;;;5089464;28;20193;-47
2021/05/24 06:37:20;;;;;;;1.13;0.90;;;23.70;34.50;;;;;;5086453;28;20250;-43
2021/05/24 06:39:46;;;;;;;1.02;1.02;;;23.70;34.50;;;;;;5089206;28;20224;-45
2021/05/24 06:42:12;;;;;;;0.90;0.90;;;23.70;34.50;;;;;;5090523;28;20212;-44
2021/05/24 06:44:38;;;;;;;0.85;0.85;;;23.70;34.50;;;;;;5088895;28;20223;-44
2021/05/24 06:47:05;;;;;;;0.70;0.70;;;23.70;34.50;;;;;;5086902;28;20197;-43
2021/05/24 06:49:31;;;;;;;1.27;1.17;;;23.70;34.40;;;;;;5088859;28;20586;-44
2021/05/24 06:51:57;;;;;;;0.90;0.90;;;23.70;34.40;;;;;;5090168;28;20613;-47
2021/05/24 06:54:23;;;;;;;1.17;0.90;;;23.70;34.40;;;;;;5088291;28;20204;-48
2021/05/24 06:56:49;;;;;;;0.98;0.90;;;23.70;35.00;;;;;;5089039;28;20200;-46
2021/05/24 06:59:15;;;;;;;1.67;1.20;;;23.70;35.00;;;;;;5089381;28;20517;-47
2021/05/24 07:01:41;;;;;;;0.93;0.80;;;23.70;34.90;;;;;;5091753;28;20200;-46
2021/05/24 07:04:07;;;;;;;0.90;0.90;;;23.70;34.90;;;;;;5089532;28;20281;-48
2021/05/24 07:06:33;;;;;;;1.50;1.08;;;23.70;34.90;;;;;;5086136;28;20578;-45
2021/05/24 07:08:59;;;;;;;0.80;0.80;;;23.70;35.00;;;;;;5094219;28;20224;-46
2021/05/24 07:11:25;;;;;;;1.00;0.90;;;23.70;35.00;;;;;;5093471;28;20196;-48
2021/05/24 07:13:51;;;;;;;1.20;0.90;;;23.70;35.00;;;;;;5092247;28;20691;-46
2021/05/24 07:16:17;;;;;;;1.65;1.52;;;23.70;35.10;;;;;;5089116;28;20212;-45
2021/05/24 07:18:43;;;;;;;1.23;1.00;;;23.70;35.00;;;;;;5083270;28;20216;-44
2021/05/24 07:21:09;;;;;;;1.13;1.00;;;23.70;35.00;;;;;;5083894;28;20204;-43
2021/05/24 07:23:35;;;;;;;1.08;0.98;;;23.70;35.00;;;;;;5086057;28;20239;-43
2021/05/24 07:26:01;;;;;;;0.93;0.90;;;23.70;35.00;;;;;;5092332;28;20573;-43
2021/05/24 07:28:27;;;;;;;1.00;0.90;;;23.70;35.00;;;;;;5091281;28;20710;-43
2021/05/24 07:30:53;;;;;;;1.25;0.90;;;23.70;35.10;;;;;;5091372;28;20203;-46
2021/05/24 07:33:19;;;;;;;1.80;1.02;;;23.70;35.10;;;;;;5086426;28;20200;-43
2021/05/24 07:35:45;;;;;;;1.23;1.10;;;23.70;35.60;;;;;;5086099;28;20208;-46
2021/05/24 07:38:11;;;;;;;2.03;1.20;;;23.80;35.90;;;;;;5089328;28;20207;-58
2021/05/24 07:40:37;;;;;;;1.95;1.08;;;23.80;36.30;;;;;;5092971;28;20257;-47
2021/05/24 07:43:03;;;;;;;1.20;1.10;;;23.80;35.90;;;;;;5091161;28;20219;-50
2021/05/24 07:45:29;;;;;;;1.88;1.00;;;23.80;36.00;;;;;;5092556;28;20208;-45
2021/05/24 07:47:55;;;;;;;1.10;1.00;;;23.70;35.80;;;;;;5089161;28;20208;-49
2021/05/24 07:50:21;;;;;;;2.78;1.45;;;23.80;36.30;;;;;;5090700;28;20621;-52
2021/05/24 07:52:47;;;;;;;2.45;1.17;;;23.80;36.10;;;;;;5087700;28;20200;-51
2021/05/24 07:55:13;;;;;;;2.55;1.30;;;23.80;36.90;;;;;;5091071;28;20277;-52
2021/05/24 07:57:39;;;;;;;4.50;1.40;;;23.80;36.70;;;;;;5092177;28;20204;-55
2021/05/24 08:00:05;;;;;;;1.75;1.25;;;23.90;37.00;;;;;;5088908;28;20229;-48
2021/05/24 08:02:31;;;;;;;5.65;1.80;;;23.80;36.40;;;;;;5092537;28;20226;-53
2021/05/24 08:04:57;;;;;;;7.80;1.30;;;23.80;36.20;;;;;;5082412;28;20241;-52
2021/05/24 08:07:23;;;;;;;3.38;1.17;;;23.80;36.30;;;;;;5085540;28;20857;-53
2021/05/24 08:09:50;;;;;;;2.10;1.20;;;23.80;36.30;;;;;;5091676;28;20228;-56
2021/05/24 08:12:17;;;;;;;3.53;1.30;;;23.80;37.00;;;;;;5078903;28;20250;-57
2021/05/24 08:14:43;;;;;;;3.17;2.15;;;23.80;37.00;;;;;;5089894;28;20337;-56
2021/05/24 08:17:09;;;;;;;6.95;2.20;;;23.80;37.50;;;;;;5075946;28;20205;-57
2021/05/24 08:19:35;;;;;;;10.93;2.17;;;23.80;37.70;;;;;;5085382;28;20231;-57
2021/05/24 08:22:01;;;;;;;3.83;2.03;;;23.60;37.70;;;;;;5082959;28;20196;-58
2021/05/24 08:24:26;;;;;;;2.45;1.25;;;23.10;36.10;;;;;;5082175;28;20271;-57
2021/05/24 08:26:52;;;;;;;3.85;1.30;;;22.80;32.20;;;;;;5076145;28;20673;-57
2021/05/24 08:29:18;;;;;;;5.75;1.52;;;22.80;32.10;;;;;;5087791;28;20293;-57
2021/05/24 08:31:44;;;;;;;3.15;1.60;;;23.00;32.80;;;;;;5089340;28;20277;-58
2021/05/24 08:34:10;;;;;;;1.33;1.10;;;23.10;33.40;;;;;;5086250;28;20200;-56
2021/05/24 08:36:36;;;;;;;1.92;1.40;;;23.20;34.10;;;;;;5091446;28;20197;-57
2021/05/24 08:39:02;;;;;;;1.17;1.08;;;23.30;34.40;;;;;;5090884;28;20549;-56
2021/05/24 08:41:28;;;;;;;5.30;1.40;;;23.30;34.80;;;;;;5091378;28;20208;-57
2021/05/24 08:43:54;;;;;;;3.80;1.35;;;23.40;35.20;;;;;;5089223;28;20232;-55
2021/05/24 08:46:20;;;;;;;1.67;1.48;;;23.40;35.20;;;;;;5091083;28;20223;-57
2021/05/24 08:48:46;;;;;;;3.15;1.52;;;23.40;35.40;;;;;;5089645;28;20712;-56
2021/05/24 08:51:12;;;;;;;2.13;1.30;;;23.40;35.20;;;;;;5089989;28;20274;-56
2021/05/24 08:53:38;;;;;;;2.22;1.30;;;23.40;35.30;;;;;;5086715;28;20628;-57
2021/05/24 08:56:04;;;;;;;2.45;1.08;;;23.40;35.20;;;;;;5083840;28;20197;-57
2021/05/24 08:58:30;;;;;;;1.15;1.00;;;23.40;35.30;;;;;;5072536;28;20229;-55
2021/05/24 09:00:56;;;;;;;2.80;1.15;;;23.40;35.30;;;;;;5079510;28;20664;-49
2021/05/24 09:03:22;;;;;;;1.67;1.30;;;23.50;35.10;;;;;;5085103;28;20230;-47
2021/05/24 09:05:48;;;;;;;1.20;1.08;;;23.50;35.10;;;;;;5075579;28;20392;-44
2021/05/24 09:08:14;;;;;;;1.42;1.30;;;23.50;35.00;;;;;;5090256;28;20216;-47
2021/05/24 09:10:40;;;;;;;2.85;1.23;;;23.50;35.20;;;;;;5089821;28;20696;-52
2021/05/24 09:13:06;;;;;;;1.52;1.20;;;23.60;35.60;;;;;;5088461;28;20207;-51
2021/05/24 09:15:32;;;;;;;3.13;1.30;;;23.60;34.70;;;;;;5090002;28;20196;-53
2021/05/24 09:18:00;;;;;;;1.45;1.10;;;23.50;34.70;;;;;;5089791;28;20821;-55
2021/05/24 09:20:26;;;;;;;2.22;1.15;;;23.50;34.80;;;;;;5089187;28;20197;-52
2021/05/24 09:22:52;;;;;;;3.25;1.50;;;23.50;34.70;;;;;;5088689;28;20679;-54
2021/05/24 09:25:18;;;;;;;2.13;1.10;;;23.50;34.70;;;;;;5088234;28;20203;-50
2021/05/24 09:27:44;;;;;;;1.65;1.55;;;23.50;34.80;;;;;;5090073;28;20652;-50
2021/05/24 09:30:10;;;;;;;1.17;1.00;;;23.50;34.70;;;;;;5087090;28;20224;-45
2021/05/24 09:32:38;;;;;;;1.23;1.13;;;23.50;34.50;;;;;;5084606;28;20200;-49
2021/05/24 09:35:04;;;;;;;1.50;1.20;;;23.50;34.40;;;;;;5087359;28;20192;-51
2021/05/24 09:37:30;;;;;;;1.58;1.10;;;23.50;34.40;;;;;;5086780;28;20214;-46
2021/05/24 09:39:56;;;;;;;1.77;1.20;;;23.50;34.30;;;;;;5086887;28;20640;-46
2021/05/24 09:42:22;;;;;;;1.20;1.10;;;23.60;34.60;;;;;;5088734;28;20254;-50
2021/05/24 09:44:49;;;;;;;3.30;1.30;;;23.50;35.10;;;;;;5087177;28;20254;-49
2021/05/24 09:47:15;;;;;;;1.63;1.35;;;23.60;34.60;;;;;;5077208;28;20643;-50
2021/05/24 09:49:41;;;;;;;3.00;1.70;;;23.50;34.50;;;;;;5090479;28;20228;-55
2021/05/24 09:52:07;;;;;;;1.10;1.00;;;23.50;34.70;;;;;;5086123;28;20205;-54
2021/05/24 09:54:33;;;;;;;1.88;1.05;;;23.60;34.30;;;;;;5086329;28;20196;-54
2021/05/24 09:57:03;;;;;;;1.63;1.10;;;23.50;34.20;;;;;;5088078;28;20204;-53
2021/05/24 09:59:29;;;;;;;1.55;1.35;;;23.50;34.00;;;;;;5073478;28;20228;-54
2021/05/24 10:01:56;;;;;;;1.42;1.05;;;23.50;34.00;;;;;;5084078;28;20209;-50
2021/05/24 10:04:23;;;;;;;3.80;1.10;;;23.50;34.20;;;;;;5085937;28;20196;-54
2021/05/24 10:06:49;;;;;;;2.35;1.20;;;23.50;33.90;;;;;;5070900;28;20229;-51
2021/05/24 10:09:15;;;;;;;1.52;1.20;;;23.50;33.80;;;;;;5081478;28;20309;-53
2021/05/24 10:11:43;;;;;;;4.28;1.40;;;23.50;33.60;;;;;;5071895;28;20209;-53
2021/05/24 10:14:09;;;;;;;1.73;1.13;;;23.50;33.50;;;;;;5090788;28;20200;-54
2021/05/24 10:16:36;;;;;;;1.85;1.10;;;23.50;33.60;;;;;;5089783;28;20201;-51
2021/05/24 10:19:02;;;;;;;1.25;1.15;;;23.50;33.60;;;;;;5091072;28;20322;-54
2021/05/24 10:21:28;;;;;;;1.20;1.10;;;23.50;33.60;;;;;;5090905;28;20266;-52
2021/05/24 10:23:55;;;;;;;2.38;1.42;;;23.50;33.60;;;;;;5090062;28;20548;-54
2021/05/24 10:26:20;;;;;;;2.38;1.50;;;23.50;33.50;;;;;;5082805;28;20208;-53
2021/05/24 10:28:46;;;;;;;2.28;1.30;;;23.50;33.30;;;;;;5082186;28;20212;-51
2021/05/24 10:31:12;;;;;;;1.13;1.08;;;23.50;33.10;;;;;;5090577;28;20240;-53
2021/05/24 10:33:38;;;;;;;0.98;0.98;;;23.50;33.00;;;;;;5089827;28;20196;-52
2021/05/24 10:36:04;;;;;;;1.25;1.10;;;23.50;33.20;;;;;;5091575;28;20208;-53
2021/05/24 10:38:32;;;;;;;2.92;1.23;;;23.50;33.10;;;;;;5092668;28;20216;-48
2021/05/24 10:40:58;;;;;;;1.50;1.40;;;23.50;33.00;;;;;;5093621;28;20230;-53
2021/05/24 10:43:24;;;;;;;1.40;1.20;;;23.50;32.90;;;;;;5093509;28;20200;-50
2021/05/24 10:45:50;;;;;;;2.60;1.48;;;23.50;32.80;;;;;;5094046;28;20574;-55
2021/05/24 10:48:16;;;;;;;1.40;1.30;;;23.40;32.90;;;;;;5075938;28;20221;-54
2021/05/24 10:50:42;;;;;;;1.60;1.10;;;23.40;32.90;;;;;;5086994;28;20220;-54
2021/05/24 10:53:08;;;;;;;1.48;1.30;;;23.50;33.10;;;;;;5093704;28;20240;-52
2021/05/24 10:55:35;;;;;;;1.90;1.40;;;23.40;32.90;;;;;;5093783;28;20196;-53
2021/05/24 10:58:01;;;;;;;1.00;1.00;;;23.40;32.70;;;;;;5090179;28;20289;-54
2021/05/24 11:00:27;;;;;;;1.77;1.10;;;23.40;33.20;;;;;;5088272;28;20208;-58
2021/05/24 11:02:53;;;;;;;2.47;1.13;;;23.50;33.20;;;;;;5090962;28;20257;-53
2021/05/24 11:05:20;;;;;;;1.20;1.10;;;23.50;34.40;;;;;;5091085;28;20232;-55
2021/05/24 11:07:46;;;;;;;1.52;1.38;;;23.50;35.10;;;;;;5094137;28;20319;-60
2021/05/24 11:10:12;;;;;;;1.95;1.45;;;23.50;35.40;;;;;;5088631;28;20263;-59
2021/05/24 11:12:38;;;;;;;1.88;1.20;;;23.50;36.00;;;;;;5092490;28;20204;-58
2021/05/24 11:15:04;;;;;;;1.25;1.13;;;23.50;37.70;;;;;;5092095;28;20200;-58
2021/05/24 11:17:30;;;;;;;3.17;1.10;;;23.50;38.50;;;;;;5093810;28;20644;-57
2021/05/24 11:19:56;;;;;;;1.30;1.20;;;23.40;39.40;;;;;;5093118;28;20209;-54
2021/05/24 11:22:22;;;;;;;1.30;1.20;;;23.40;39.70;;;;;;5091693;28;20848;-57
2021/05/24 11:24:50;;;;;;;2.08;1.33;;;23.40;40.00;;;;;;5091449;28;20220;-57
2021/05/24 11:27:16;;;;;;;2.05;1.55;;;23.40;38.80;;;;;;5091705;28;20723;-58
2021/05/24 11:29:43;;;;;;;3.28;2.35;;;23.40;40.50;;;;;;5090343;28;20551;-57
2021/05/24 11:32:09;;;;;;;4.95;2.92;;;23.40;40.50;;;;;;5092156;28;20304;-62
2021/05/24 11:34:35;;;;;;;5.85;4.57;;;23.50;39.20;;;;;;5090217;28;20227;-59
2021/05/24 11:37:01;;;;;;;6.70;4.47;;;23.60;38.30;;;;;;5082210;28;20565;-58
2021/05/24 11:39:28;;;;;;;15.82;9.45;;;23.70;37.80;;;;;;5088011;28;20208;-58
2021/05/24 11:41:54;;;;;;;15.38;9.73;;;23.70;37.80;;;;;;5091383;28;20267;-59
2021/05/24 11:44:20;;;;;;;20.85;12.65;;;23.80;38.90;;;;;;5090842;28;20211;-59
2021/05/24 11:46:46;;;;;;;31.23;17.48;;;23.80;39.90;;;;;;5088329;28;20224;-57
2021/05/24 11:49:12;;;;;;;24.48;14.45;;;23.90;40.20;;;;;;5085667;28;20228;-56
2021/05/24 11:51:38;;;;;;;25.98;13.32;;;23.90;40.60;;;;;;5092029;28;20652;-56
2021/05/24 11:54:04;;;;;;;24.55;12.68;;;23.90;40.70;;;;;;5091273;28;20679;-56
2021/05/24 11:56:30;;;;;;;21.80;12.30;;;23.90;41.00;;;;;;5084332;28;20227;-56
2021/05/24 11:58:56;;;;;;;25.20;14.38;;;23.90;41.50;;;;;;5090230;28;20224;-57
2021/05/24 12:01:22;;;;;;;27.02;13.45;;;23.90;41.60;;;;;;5088994;28;20266;-57
2021/05/24 12:03:48;;;;;;;24.67;13.93;;;23.90;41.80;;;;;;5090485;28;20208;-55
2021/05/24 12:06:14;;;;;;;26.23;13.32;;;23.90;41.90;;;;;;5090416;28;20196;-57
2021/05/24 12:08:40;;;;;;;22.23;13.35;;;24.00;42.00;;;;;;5084118;28;20255;-56
2021/05/24 12:11:08;;;;;;;23.25;12.52;;;23.90;41.80;;;;;;5088110;28;20243;-56
2021/05/24 12:13:34;;;;;;;25.25;13.15;;;24.00;42.10;;;;;;5089619;28;20225;-58
2021/05/24 12:16:00;;;;;;;24.30;12.57;;;23.90;41.80;;;;;;5092131;28;20189;-57
2021/05/24 12:18:29;;;;;;;21.80;13.05;;;24.00;42.00;;;;;;5091389;28;20231;-58
2021/05/24 12:20:55;;;;;;;24.17;12.98;;;24.00;41.80;;;;;;5091560;28;20204;-58
2021/05/24 12:23:21;;;;;;;23.50;11.70;;;24.00;41.60;;;;;;5091706;28;20243;-58
2021/05/24 12:25:47;;;;;;;25.48;12.55;;;23.90;41.60;;;;;;5091252;28;20192;-58
2021/05/24 12:28:13;;;;;;;23.33;11.85;;;24.00;41.70;;;;;;5088744;28;20220;-58
2021/05/24 12:30:43;;;;;;;23.10;12.13;;;24.00;41.70;;;;;;5090744;28;20277;-52
2021/05/24 12:33:09;;;;;;;22.05;10.57;;;23.90;41.60;;;;;;5087713;28;20209;-55
2021/05/24 12:35:36;;;;;;;14.98;8.05;;;23.90;41.90;;;;;;5090683;28;20361;-54
2021/05/24 12:38:07;;;;;;;21.17;10.20;;;23.90;41.60;;;;;;5090546;28;20216;-53